Latest Weather Observations for Albury

IDV60801

Issued at 10:31 pm EDT Tuesday 9 February 2016 (issued every 30 minutes, with the page automatically refreshed every 10 minutes)

About weather observations | Map of weather stations | Latest weather observations for VIC | Other Formats
Station Details ID: 072160 Name: ALBURY AIRPORT AWS Lat: -36.07 Lon: 146.95 Height: 163.5 m
Data from the previous 72 hours. | See also: Recent months at Albury
Date/Time
EDT
Temp
°C
App
Temp
°C
Dew
Point
Rel
Hum
%
Delta-T
°C
Wind Press
QNH
hPa
Press
MSL
hPa
Rain
since 9 am
mm
Dir
 
Spd
km/h
Gust
km/h
Spd
kts
Gust
kts
09/10:30pm 24.7 26.4 15.1 55 5.8 CALM 0 0 0 0 1014.6 1013.9 0.0
09/10:00pm 25.3 26.9 15.0 53 6.2 CALM 0 0 0 0 1014.5 1013.8 0.0
09/09:30pm 27.5 28.2 14.5 45 7.9 SSW 4 6 2 3 1014.3 1013.6 0.0
09/09:00pm 27.0 28.5 14.7 47 7.4 CALM 0 0 0 0 1014.0 1013.3 0.0
09/08:30pm 28.2 28.2 14.1 42 8.5 SE 7 9 4 5 1013.9 1013.2 0.0
09/08:00pm 30.7 29.9 13.0 33 10.6 ESE 9 11 5 6 1014.0 1013.3 0.0
09/07:30pm 32.2 30.6 11.4 28 12.2 ESE 11 15 6 8 1013.8 1013.1 0.0
09/07:00pm 33.0 31.2 10.9 26 12.9 E 11 15 6 8 1013.8 1013.1 0.0
09/06:30pm 33.1 31.3 11.0 26 13.0 ESE 11 15 6 8 1013.7 1012.9 0.0
09/06:00pm 33.5 32.4 13.0 29 12.4 SSE 11 17 6 9 1013.9 1013.2 0.0
09/05:30pm 33.5 32.2 12.5 28 12.6 SSE 11 19 6 10 1014.2 1013.5 0.0
09/05:00pm 33.5 32.5 13.5 29 12.2 SW 11 19 6 10 1014.6 1013.9 0.0
09/04:30pm 34.9 33.8 12.0 25 13.7 WNW 9 20 5 11 1014.9 1014.2 0.0
09/04:00pm 33.5 32.8 11.9 27 12.9 N 7 13 4 7 1015.2 1014.5 0.0
09/03:30pm 33.1 32.0 12.1 27 12.5 NNW 9 15 5 8 1015.8 1015.0 0.0
09/03:00pm 33.3 32.5 13.9 31 11.9 NNE 11 19 6 10 1016.4 1015.6 0.0
09/02:30pm 32.3 31.3 13.5 32 11.4 NW 11 17 6 9 1017.0 1016.2 0.0
09/02:00pm 31.4 30.1 13.6 33 10.8 NNE 13 24 7 13 1017.5 1016.7 0.0
09/01:30pm 31.3 29.2 13.6 34 10.7 NNE 17 26 9 14 1017.9 1017.1 0.0
09/01:00pm 30.9 29.9 14.5 37 10.0 NNW 13 20 7 11 1018.3 1017.5 0.0
09/12:30pm 29.6 28.0 15.0 41 9.0 NW 17 26 9 14 1018.6 1017.8 0.0
09/12:00pm 29.2 28.0 15.0 42 8.7 N 15 26 8 14 1019.0 1018.2 0.0
09/11:30am 29.1 29.0 14.9 42 8.7 ESE 9 15 5 8 1019.3 1018.6 0.0
09/11:00am 28.1 27.5 14.7 44 8.1 ENE 11 24 6 13 1019.4 1018.7 0.0
09/10:30am 27.1 26.3 15.1 47 7.3 NE 13 19 7 10 1019.4 1018.7 0.0
09/10:00am 26.3 25.7 14.7 48 7.0 ENE 11 17 6 9 1019.5 1018.8 0.0
09/09:30am 25.2 23.1 13.7 49 6.8 NE 17 20 9 11 1019.6 1018.9 0.0
09/09:00am 24.8 24.7 14.9 54 5.9 E 9 13 5 7 1019.7 1019.0 0.0
09/08:30am 23.4 23.6 14.7 58 5.2 ENE 7 9 4 5 1019.6 1018.9 0.0
09/08:00am 21.8 22.1 14.9 65 4.1 E 7 9 4 5 1019.4 1018.7 0.0
09/07:30am 20.8 21.0 14.2 66 3.9 SE 6 7 3 4 1019.1 1018.3 0.0
09/07:00am 19.2 19.4 14.2 73 2.9 NE 6 7 3 4 1018.9 1018.1 0.0
09/06:30am 19.1 20.1 14.4 74 2.7 NNW 2 9 1 5 1018.6 1017.8 0.0
09/06:00am 20.2 20.1 13.2 64 4.0 WSW 6 6 3 3 1018.2 1017.4 0.0
09/05:30am 21.1 21.0 14.0 64 4.1 SE 7 13 4 7 1017.8 1017.0 0.0
09/05:00am 20.8 21.9 13.5 63 4.2 CALM 0 0 0 0 1017.4 1016.6 0.0
09/04:30am 21.6 21.4 13.5 60 4.7 ESE 7 9 4 5 1017.2 1016.4 0.0
09/04:00am 21.8 21.5 13.2 58 5.0 ENE 7 11 4 6 1017.2 1016.4 0.0
09/03:30am 22.4 22.3 14.0 59 4.9 E 7 9 4 5 1017.1 1016.3 0.0
09/03:00am 23.0 22.6 15.1 61 4.7 SE 11 13 6 7 1017.1 1016.3 0.0
09/02:30am 23.0 23.3 15.1 61 4.7 SE 7 13 4 7 1017.1 1016.3 0.0
09/02:00am 23.4 23.5 15.5 61 4.8 SE 9 15 5 8 1017.0 1016.2 0.0
09/01:30am 23.7 23.7 16.2 63 4.6 SE 11 13 6 7 1017.0 1016.2 0.0
09/01:00am 24.0 24.5 16.5 63 4.6 SE 9 13 5 7 1017.1 1016.3 0.0
09/12:30am 23.7 24.3 15.2 59 5.1 ESE 6 9 3 5 1017.1 1016.3 0.0
09/12:00am 24.9 25.1 14.1 51 6.4 ESE 6 9 3 5 1017.0 1016.2 0.0
 
Date/Time
EDT
Temp
°C
App
Temp
°C
Dew
Point
Rel
Hum
%
Delta-T
°C
Wind Press
QNH
hPa
Press
MSL
hPa
Rain
since 9 am
mm
Dir
 
Spd
km/h
Gust
km/h
Spd
kts
Gust
kts
08/11:30pm 24.9 24.1 12.8 47 7.0 SSW 9 15 5 8 1016.9 1016.1 0.0
08/11:00pm 25.6 25.0 12.4 43 7.6 SSE 7 9 4 5 1017.0 1016.2 0.0
08/10:30pm 26.7 25.9 11.6 39 8.7 NW 7 9 4 5 1016.7 1015.9 0.0
08/10:00pm 27.0 26.3 11.9 39 8.7 WSW 7 13 4 7 1016.5 1015.7 0.0
08/09:30pm 27.6 25.9 12.4 39 8.9 WSW 13 19 7 10 1016.2 1015.4 0.0
08/09:00pm 28.1 26.9 14.0 42 8.5 W 13 20 7 11 1015.8 1015.0 0.0
08/08:30pm 29.6 29.2 12.5 35 10.1 SSW 6 9 3 5 1015.5 1014.8 0.0
08/08:00pm 32.0 31.2 11.7 28 12.0 SW 7 11 4 6 1015.3 1014.6 0.0
08/07:30pm 32.9 32.5 13.0 30 12.0 SW 7 11 4 6 1015.2 1014.5 0.0
08/07:00pm 33.1 31.7 12.1 27 12.5 S 11 15 6 8 1015.1 1014.4 0.0
08/06:30pm 33.5 32.2 12.5 28 12.6 S 11 17 6 9 1015.2 1014.5 0.0
08/06:00pm 34.0 31.9 12.4 27 13.0 S 15 22 8 12 1015.3 1014.6 0.0
08/05:30pm 34.5 34.0 12.2 26 13.4 S 6 13 3 7 1015.4 1014.7 0.0
08/05:00pm 34.6 33.6 13.4 28 13.0 SW 11 19 6 10 1015.5 1014.8 0.0
08/04:30pm 34.3 32.6 12.6 27 13.1 WSW 13 20 7 11 1015.9 1015.1 0.0
08/04:00pm 34.9 32.1 13.1 27 13.3 WSW 20 37 11 20 1016.0 1015.2 0.0
08/03:56pm 34.1 30.9 11.9 26 13.2 NW 20 37 11 20 1015.9 1015.1 0.0
08/03:30pm 34.1 32.6 14.1 30 12.3 WNW 15 24 8 13 1016.4 1015.6 0.0
08/03:00pm 33.8 33.6 14.8 32 11.8 WSW 9 20 5 11 1016.8 1016.0 0.0
08/02:30pm 32.8 31.4 13.4 30 11.8 W 13 22 7 12 1017.2 1016.4 0.0
08/02:00pm 32.5 31.0 13.2 31 11.7 W 13 20 7 11 1017.7 1016.9 0.0
08/01:30pm 32.1 30.7 12.3 29 11.8 SW 11 20 6 11 1018.0 1017.2 0.0
08/01:00pm 31.9 31.7 13.6 32 11.1 NNE 7 11 4 6 1018.3 1017.5 0.0
08/12:30pm 30.9 29.5 12.3 32 11.0 SSW 11 17 6 9 1018.7 1017.9 0.0
08/12:00pm 30.3 29.4 12.7 34 10.4 E 9 15 5 8 1019.1 1018.3 0.0
08/11:30am 29.3 29.1 13.1 37 9.7 SE 6 11 3 6 1019.3 1018.6 0.0
08/11:00am 28.7 28.4 12.6 37 9.5 SE 6 11 3 6 1019.5 1018.8 0.0
08/10:30am 27.1 26.9 13.1 42 8.3 SE 6 9 3 5 1019.5 1018.8 0.0
08/10:00am 26.3 26.5 14.1 47 7.3 ESE 6 9 3 5 1019.6 1018.9 0.0
08/09:30am 24.5 25.6 13.4 50 6.5 CALM 0 7 0 4 1019.7 1019.0 0.0
08/09:00am 24.2 24.9 13.4 51 6.3 NE 2 6 1 3 1019.7 1019.0 0.0
08/08:30am 22.2 22.8 13.0 56 5.3 SSE 2 6 1 3 1019.6 1018.9 0.0
08/08:00am 21.9 21.5 12.5 55 5.4 ESE 6 7 3 4 1019.4 1018.7 0.0
08/07:30am 20.7 21.5 13.6 64 4.1 ENE 2 6 1 3 1019.2 1018.5 0.0
08/07:00am 19.2 20.2 13.2 68 3.4 CALM 0 0 0 0 1018.9 1018.1 0.0
08/06:30am 18.6 19.8 13.7 73 2.8 CALM 0 0 0 0 1018.4 1017.6 0.0
08/06:00am 19.1 19.2 13.9 72 3.0 SE 6 7 3 4 1018.1 1017.3 0.0
08/05:30am 19.0 20.3 14.1 73 2.8 CALM 0 0 0 0 1017.8 1017.0 0.0
08/05:00am 18.6 19.1 13.9 74 2.7 SSE 4 9 2 5 1017.6 1016.8 0.0
08/04:30am 19.3 20.2 13.9 71 3.1 N 2 7 1 4 1017.6 1016.8 0.0
08/04:00am 20.0 20.7 14.4 70 3.3 NE 4 9 2 5 1017.4 1016.6 0.0
08/03:30am 21.1 21.6 14.0 64 4.1 ENE 4 6 2 3 1017.3 1016.5 0.0
08/03:00am 21.6 21.5 13.8 61 4.5 NE 7 7 4 4 1017.3 1016.5 0.0
08/02:30am 24.7 23.0 12.6 47 7.0 SE 13 19 7 10 1017.3 1016.5 0.0
08/02:00am 24.9 23.4 13.1 48 6.9 SE 13 17 7 9 1017.3 1016.5 0.0
08/01:30am 24.4 24.1 14.5 54 5.9 ESE 9 13 5 7 1017.4 1016.6 0.0
08/01:00am 23.3 24.7 14.3 57 5.3 CALM 0 0 0 0 1017.3 1016.5 0.0
08/12:30am 24.8 24.5 14.3 52 6.3 E 9 11 5 6 1017.1 1016.3 0.0
08/12:00am 24.8 24.9 14.0 51 6.4 E 6 9 3 5 1017.0 1016.2 0.0
 
Date/Time
EDT
Temp
°C
App
Temp
°C
Dew
Point
Rel
Hum
%
Delta-T
°C
Wind Press
QNH
hPa
Press
MSL
hPa
Rain
since 9 am
mm
Dir
 
Spd
km/h
Gust
km/h
Spd
kts
Gust
kts
07/11:30pm 24.1 24.3 14.8 56 5.6 NNE 7 11 4 6 1016.8 1016.0 0.0
07/11:00pm 23.5 24.3 15.8 62 4.7 N 6 7 3 4 1016.7 1015.9 0.0
07/10:30pm 24.9 25.5 15.8 57 5.6 ESE 7 11 4 6 1016.6 1015.8 0.0
07/10:00pm 25.3 26.1 15.9 56 5.8 SSE 6 13 3 7 1016.4 1015.6 0.0
07/09:30pm 25.5 27.7 16.4 57 5.6 CALM 0 0 0 0 1016.1 1015.3 0.0
07/09:00pm 27.3 28.4 15.7 49 7.1 E 4 7 2 4 1015.4 1014.7 0.0
07/08:30pm 28.6 29.3 14.4 41 8.6 S 4 6 2 3 1015.0 1014.3 0.0
07/08:00pm 30.7 30.9 14.3 36 10.0 S 6 6 3 3 1014.7 1014.0 0.0
07/07:30pm 31.0 30.8 14.6 37 10.1 SSW 9 11 5 6 1014.3 1013.6 0.0
07/07:00pm 31.8 31.6 13.5 32 11.1 S 7 13 4 7 1014.1 1013.4 0.0
07/06:30pm 31.7 30.9 13.9 34 10.8 S 11 17 6 9 1013.9 1013.2 0.0
07/06:00pm 31.8 30.7 13.1 32 11.3 S 11 17 6 9 1013.9 1013.2 0.0
07/05:30pm 32.3 31.2 14.4 33 11.0 SSW 13 20 7 11 1014.0 1013.3 0.0
07/05:00pm 31.9 31.1 14.1 34 10.9 SW 11 19 6 10 1014.1 1013.4 0.0
07/04:30pm 31.9 31.5 14.1 34 10.9 ESE 9 13 5 7 1014.4 1013.7 0.0
07/04:00pm 31.7 31.8 14.4 35 10.6 WNW 7 13 4 7 1014.7 1014.0 0.0
07/03:30pm 30.9 29.7 14.1 36 10.2 SW 13 22 7 12 1015.0 1014.3 0.0
07/03:00pm 30.7 28.8 14.3 36 10.0 SSW 17 24 9 13 1015.6 1014.9 0.0
07/02:30pm 29.9 28.3 14.0 37 9.6 WSW 15 26 8 14 1016.1 1015.3 0.0
07/02:00pm 29.6 28.5 14.2 39 9.3 W 13 22 7 12 1016.4 1015.6 0.0
07/01:30pm 28.5 27.6 13.6 40 8.9 WSW 11 20 6 11 1016.7 1015.9 0.0
07/01:00pm 28.5 26.5 12.8 38 9.3 SW 15 24 8 13 1017.1 1016.3 0.0
07/12:30pm 27.9 27.6 14.5 44 8.1 SSW 9 15 5 8 1017.5 1016.7 0.0
07/12:00pm 27.0 26.1 13.7 44 7.9 W 11 19 6 10 1017.7 1016.9 0.0
07/11:30am 26.4 26.0 14.2 47 7.3 NE 9 13 5 7 1018.0 1017.2 0.0
07/11:00am 25.2 24.8 13.1 47 7.1 NNE 7 13 4 7 1018.4 1017.6 0.0
07/10:30am 24.8 24.5 12.7 47 7.0 ESE 6 11 3 6 1018.5 1017.7 0.0
07/10:00am 23.4 23.7 14.9 59 5.1 SE 7 9 4 5 1018.5 1017.7 0.0
07/09:30am 23.1 23.7 15.4 62 4.6 E 6 7 3 4 1018.6 1017.8 0.0
07/09:00am 21.0 21.7 14.6 67 3.8 SSE 4 9 2 5 1018.7 1017.9 0.0
07/08:30am 19.4 20.1 13.3 68 3.5 SSW 2 6 1 3 1018.4 1017.6 0.0
07/08:00am 18.7 18.6 13.3 71 3.1 SE 6 7 3 4 1018.2 1017.4 0.0
07/07:30am 17.0 16.3 13.1 78 2.2 SE 9 11 5 6 1017.9 1017.1 0.0
07/07:00am 16.1 16.5 13.6 85 1.4 SE 4 7 2 4 1017.6 1016.8 0.0
07/06:30am 15.3 16.0 12.2 82 1.7 CALM 0 0 0 0 1017.4 1016.6 0.0
07/06:00am 15.6 16.4 12.5 82 1.7 CALM 0 0 0 0 1017.0 1016.2 0.0
07/05:30am 16.5 17.4 12.8 79 2.1 CALM 0 0 0 0 1016.8 1016.0 0.0
07/05:00am 15.7 16.4 12.1 79 2.0 CALM 0 0 0 0 1016.6 1015.8 0.0
07/04:30am 16.6 16.2 12.4 76 2.3 NE 6 7 3 4 1016.5 1015.7 0.0
07/04:00am 17.4 18.2 12.7 74 2.6 CALM 0 0 0 0 1016.5 1015.7 0.0
07/03:30am 17.6 18.3 12.3 71 3.0 CALM 0 0 0 0 1016.2 1015.4 0.0
07/03:00am 17.3 18.2 12.8 75 2.5 CALM 0 0 0 0 1016.1 1015.3 0.0
07/02:30am 17.5 18.1 13.0 75 2.5 ENE 2 6 1 3 1016.2 1015.4 0.0
07/02:00am 17.5 17.6 12.8 74 2.6 SSE 4 6 2 3 1016.2 1015.4 0.0
07/01:30am 17.3 18.1 12.4 73 2.7 CALM 0 0 0 0 1016.2 1015.4 0.0
07/01:00am 18.7 19.6 12.9 69 3.3 CALM 0 0 0 0 1016.2 1015.4 0.0
07/12:30am 19.2 20.3 13.4 69 3.3 CALM 0 0 0 0 1016.2 1015.4 0.0
07/12:00am 19.5 20.3 12.5 64 3.9 CALM 0 0 0 0 1016.1 1015.3 0.0
 
Date/Time
EDT
Temp
°C
App
Temp
°C
Dew
Point
Rel
Hum
%
Delta-T
°C
Wind Press
QNH
hPa
Press
MSL
hPa
Rain
since 9 am
mm
Dir
 
Spd
km/h
Gust
km/h
Spd
kts
Gust
kts
06/11:30pm 20.1 21.1 13.1 64 4.0 CALM 0 4 0 2 1016.0 1015.2 0.0
06/11:00pm 19.9 19.9 14.3 70 3.3 SSE 7 7 4 4 1015.9 1015.1 0.0

Other Formats:

Comma delimited format used in spreadsheet applications
http://www.bom.gov.au/fwo/IDV60801/IDV60801.95896.axf

JavaScript Object Notation format (JSON) in row-major order
http://www.bom.gov.au/fwo/IDV60801/IDV60801.95896.json